Dar Mlodziezy — SQLZ — position and weather

sailwx.info

Track history (hours):
 
Tides and Currents Weather Stations Pressure Air Temp Water Temp Dewpoint Dewpoint Depression Visibility Wind Speed Wind Dir Waves Ship Positions

Dar Mlodziezy

Training ship for Gdynia Maritime University, Poland.

Ship's website: http://www.am.gdynia.pl/armator/darmlodziezy.php

Last reported at 2020-Jul-07 23:00 UTC. Time now 2020-Jul-09 05:11 UTC.
Position N 60°08' E 019°06'.

Length 95 m; beam 14 m.

Type: Sailing vessel. MMSI: 261148000.

Date/timePositionNaut miles runAvg speedWind from/ knotsBaromVisibWave heightAir tempDewpointWater temp
2020-Jul-07 23:00N 60°08' E 019°06'9 8.7
2020-Jul-07 22:00N 60°16' E 019°01'13 8.5
2020-Jul-07 20:30N 60°29' E 018°59'185 7.2
2020-Jul-06 18:46N 63°28' E 020°38'3 7.6
2020-Jul-06 18:21N 63°31' E 020°41'7 0.1
2020-Jul-04 19:06N 63°25' E 020°31'6 9.5
2020-Jul-04 18:30N 63°20' E 020°25'172 7.0
2020-Jul-03 17:47N 60°32' E 019°04'9 6.3
2020-Jul-03 16:23N 60°24' E 019°02'2 6.3
2020-Jul-03 16:00N 60°21' E 019°01'3 6.3
2020-Jul-03 15:30N 60°18' E 019°01'5 5.2
2020-Jul-03 14:30N 60°13' E 019°05'3 5.3
2020-Jul-03 14:00N 60°11' E 019°07'3 6.1
2020-Jul-03 13:30N 60°08' E 019°11'19 6.1
2020-Jul-03 10:21N 59°53' E 019°36'3 7.5
2020-Jul-03 10:00N 59°52' E 019°39'298 6.6
2020-Jul-01 13:14N 54°54' E 019°12'32 4.2
2020-Jul-01 05:30N 54°31' E 018°34'0 0.0
2020-Jul-01 04:00N 54°31' E 018°34'0 0.0
2020-Jul-01 02:30N 54°31' E 018°34'0 0.0
2020-Jul-01 00:00N 54°31' E 018°34'0 0.0
2020-Jun-30 21:30N 54°31' E 018°34'0 0.0
2020-Jun-30 18:30N 54°31' E 018°34'0 0.0
2020-Jun-30 18:00N 54°31' E 018°34'0 0.0
2020-Jun-30 17:30N 54°31' E 018°34'0 0.0
2020-Jun-30 16:30N 54°31' E 018°34'0 0.0
2020-Jun-30 15:30N 54°31' E 018°34'0 0.0
2020-Jun-30 14:30N 54°31' E 018°34'0 0.0
2020-Jun-30 13:30N 54°31' E 018°34'0 0.0
2020-Jun-30 12:00N 54°31' E 018°34'0 0.0
2020-Jun-30 07:30N 54°31' E 018°34'0 0.0
2020-Jun-30 06:30N 54°31' E 018°34'0 0.0
2020-Jun-30 03:30N 54°31' E 018°34'0 0.0
2020-Jun-30 02:27N 54°31' E 018°34'0 0.0
2020-Jun-30 00:30N 54°31' E 018°34'0 0.0
2020-Jun-29 23:00N 54°31' E 018°34'0 0.0
2020-Jun-29 22:30N 54°31' E 018°34'0 0.0
2020-Jun-29 21:30N 54°31' E 018°34'0 0.0
2020-Jun-29 16:30N 54°31' E 018°34'0 0.0
2020-Jun-29 16:00N 54°31' E 018°34'0 0.0
2020-Jun-29 14:00N 54°31' E 018°34'0 0.0
2020-Jun-29 13:30N 54°31' E 018°34'8 1.2
2020-Jun-29 07:00N 54°32' E 018°47'5 3.1
2020-Jun-29 05:31N 54°36' E 018°53'5 4.9
2020-Jun-29 04:31N 54°40' E 018°54'22 5.6
2020-Jun-29 00:31N 54°52' E 018°21'6 5.8
2020-Jun-28 23:30N 54°52' E 018°11'10 5.8
2020-Jun-28 21:47N 54°51' E 017°54'12 1.2
2020-Jun-28 11:55N 54°47' E 017°35'0 0.0
2020-Jun-28 07:28N 54°47' E 017°35'0 0.0
2020-Jun-28 02:03N 54°47' E 017°35'0 0.0
2020-Jun-28 01:27N 54°47' E 017°35'  
Track history (hours):
 
Tides and Currents Weather Stations Pressure Air Temp Water Temp Dewpoint Dewpoint Depression Visibility Wind Speed Wind Dir Waves Ship Positions

Dar Mlodziezy

Training ship for Gdynia Maritime University, Poland.

Ship's website: http://www.am.gdynia.pl/armator/darmlodziezy.php

Last reported at 2020-Jul-07 23:00 UTC. Time now 2020-Jul-09 05:11 UTC.
Position N 60°08' E 019°06'.

Length 95 m; beam 14 m.

Type: Sailing vessel. MMSI: 261148000.

Date/timePositionNaut miles runAvg speedWind from/ knotsBaromVisibWave heightAir tempDewpointWater temp
2020-Jul-07 23:00N 60°08' E 019°06'9 8.7
2020-Jul-07 22:00N 60°16' E 019°01'13 8.5
2020-Jul-07 20:30N 60°29' E 018°59'185 7.2
2020-Jul-06 18:46N 63°28' E 020°38'3 7.6
2020-Jul-06 18:21N 63°31' E 020°41'7 0.1
2020-Jul-04 19:06N 63°25' E 020°31'6 9.5
2020-Jul-04 18:30N 63°20' E 020°25'172 7.0
2020-Jul-03 17:47N 60°32' E 019°04'9 6.3
2020-Jul-03 16:23N 60°24' E 019°02'2 6.3
2020-Jul-03 16:00N 60°21' E 019°01'3 6.3
2020-Jul-03 15:30N 60°18' E 019°01'5 5.2
2020-Jul-03 14:30N 60°13' E 019°05'3 5.3
2020-Jul-03 14:00N 60°11' E 019°07'3 6.1
2020-Jul-03 13:30N 60°08' E 019°11'19 6.1
2020-Jul-03 10:21N 59°53' E 019°36'3 7.5
2020-Jul-03 10:00N 59°52' E 019°39'298 6.6
2020-Jul-01 13:14N 54°54' E 019°12'32 4.2
2020-Jul-01 05:30N 54°31' E 018°34'0 0.0
2020-Jul-01 04:00N 54°31' E 018°34'0 0.0
2020-Jul-01 02:30N 54°31' E 018°34'0 0.0
2020-Jul-01 00:00N 54°31' E 018°34'0 0.0
2020-Jun-30 21:30N 54°31' E 018°34'0 0.0
2020-Jun-30 18:30N 54°31' E 018°34'0 0.0
2020-Jun-30 18:00N 54°31' E 018°34'0 0.0
2020-Jun-30 17:30N 54°31' E 018°34'0 0.0
2020-Jun-30 16:30N 54°31' E 018°34'0 0.0
2020-Jun-30 15:30N 54°31' E 018°34'0 0.0
2020-Jun-30 14:30N 54°31' E 018°34'0 0.0
2020-Jun-30 13:30N 54°31' E 018°34'0 0.0
2020-Jun-30 12:00N 54°31' E 018°34'0 0.0
2020-Jun-30 07:30N 54°31' E 018°34'0 0.0
2020-Jun-30 06:30N 54°31' E 018°34'0 0.0
2020-Jun-30 03:30N 54°31' E 018°34'0 0.0
2020-Jun-30 02:27N 54°31' E 018°34'0 0.0
2020-Jun-30 00:30N 54°31' E 018°34'0 0.0
2020-Jun-29 23:00N 54°31' E 018°34'0 0.0
2020-Jun-29 22:30N 54°31' E 018°34'0 0.0
2020-Jun-29 21:30N 54°31' E 018°34'0 0.0
2020-Jun-29 16:30N 54°31' E 018°34'0 0.0
2020-Jun-29 16:00N 54°31' E 018°34'0 0.0
2020-Jun-29 14:00N 54°31' E 018°34'0 0.0
2020-Jun-29 13:30N 54°31' E 018°34'8 1.2
2020-Jun-29 07:00N 54°32' E 018°47'5 3.1
2020-Jun-29 05:31N 54°36' E 018°53'5 4.9
2020-Jun-29 04:31N 54°40' E 018°54'22 5.6
2020-Jun-29 00:31N 54°52' E 018°21'6 5.8
2020-Jun-28 23:30N 54°52' E 018°11'10 5.8
2020-Jun-28 21:47N 54°51' E 017°54'12 1.2
2020-Jun-28 11:55N 54°47' E 017°35'0 0.0
2020-Jun-28 07:28N 54°47' E 017°35'0 0.0
2020-Jun-28 02:03N 54°47' E 017°35'0 0.0
2020-Jun-28 01:27N 54°47' E 017°35'  

Dump ship's entire track history